DTKA

Tabarka 7 Novembre Airport

Tabarka, Tunisia
METAR DTKA 181300Z 27016KT 9999 SCT020 14/08 Q1015 NOSIG
Observed Flight Rules
Jan-18 @ 13:00 UTC (50 minutes ago) Visual Flight Rules
Wind Visibility Clouds
270° at 16 knots 10,000+ meters
  • Scattered at 2,000' AGL
Temperatures Readings
Current 14°C / 57°F
Dewpoint 8°C / 46°F
Humidity 67%
Altimeter 29.97" Hg
Pressure 1014.92 hPa
Elevation 21
METAR DTKA 181300Z 27016KT 9999 SCT020 14/08 Q1015 NOSIG
Observed Flight Rules
Jan-18 @ 13:00 UTC
(50 minutes ago)
VFR
Wind Visibility
270° at 16 knots 10,000+ meters
Clouds
  • Scattered at 2,000' AGL
Temperature Dewpoint
14°C / 57°F 8°C / 46°F
Humidity Altimeter Pressure
67% 29.97" Hg 1014.92 hPa